createdAt,value
2023-02-11T00:00:40.203Z,55.60
2023-02-11T00:03:06.726Z,50.80
2023-02-11T00:05:33.090Z,48.55
2023-02-11T00:07:59.396Z,41.42
2023-02-11T00:10:25.694Z,50.60
2023-02-11T00:12:51.988Z,54.72
2023-02-11T00:15:18.312Z,56.25
2023-02-11T00:17:44.641Z,49.53
2023-02-11T00:20:11.033Z,53.38
2023-02-11T00:22:37.373Z,51.28
2023-02-11T00:25:04.349Z,48.42
2023-02-11T00:27:30.647Z,43.00
2023-02-11T00:29:57.049Z,50.10
2023-02-11T00:32:23.353Z,46.90
2023-02-11T00:34:52.647Z,49.08
2023-02-11T00:37:19.058Z,45.33
2023-02-11T00:39:45.467Z,49.60
2023-02-11T00:42:14.988Z,44.03
2023-02-11T00:44:41.384Z,43.80
2023-02-11T00:47:07.685Z,44.63
2023-02-11T00:49:34.040Z,40.85
2023-02-11T00:52:00.402Z,39.53
2023-02-11T00:54:29.041Z,43.35
2023-02-11T00:56:56.294Z,38.35
2023-02-11T00:59:22.623Z,42.22
2023-02-11T01:01:49.042Z,39.03
2023-02-11T01:04:15.369Z,43.35
2023-02-11T01:06:41.661Z,43.53
2023-02-11T01:09:08.069Z,40.70
2023-02-11T01:11:34.578Z,42.13
2023-02-11T01:14:02.539Z,40.53
2023-02-11T01:16:29.038Z,42.03
2023-02-11T01:18:55.497Z,41.15
2023-02-11T01:21:21.832Z,44.17
2023-02-11T01:23:48.146Z,32.17
2023-02-11T01:26:14.475Z,40.58
2023-02-11T01:28:40.768Z,33.53
2023-02-11T01:31:07.233Z,42.17
2023-02-11T01:33:33.958Z,40.45
2023-02-11T01:36:01.883Z,34.17
2023-02-11T01:38:28.495Z,37.58
2023-02-11T01:41:03.621Z,40.65
2023-02-11T01:43:34.119Z,40.60
2023-02-11T01:46:23.403Z,40.65
2023-02-11T01:48:57.361Z,32.55
2023-02-11T01:51:28.852Z,41.92
2023-02-11T01:53:57.111Z,38.67
2023-02-11T01:56:26.965Z,36.95
2023-02-11T01:58:59.056Z,37.85
2023-02-11T02:01:27.578Z,37.53
2023-02-11T02:03:59.716Z,43.55
2023-02-11T02:06:33.284Z,37.72
2023-02-11T02:09:11.234Z,37.25
2023-02-11T02:11:37.822Z,34.03
2023-02-11T02:14:04.236Z,41.85
2023-02-11T02:16:34.895Z,42.00
2023-02-11T02:19:22.474Z,36.10
2023-02-11T02:22:06.110Z,36.15
2023-02-11T02:25:14.048Z,36.72
2023-02-11T02:27:49.355Z,36.50
2023-02-11T02:30:45.095Z,39.58
2023-02-11T02:33:22.658Z,39.05
2023-02-11T02:36:14.307Z,39.20
2023-02-11T02:38:56.096Z,39.60
2023-02-11T02:41:28.362Z,36.40
2023-02-11T02:43:54.966Z,38.13
2023-02-11T02:46:30.648Z,37.03
2023-02-11T02:48:58.417Z,28.80
2023-02-11T02:51:53.934Z,38.10
2023-02-11T02:54:50.558Z,38.45
2023-02-11T02:57:32.328Z,34.08
2023-02-11T03:00:25.777Z,38.30
2023-02-11T03:03:10.121Z,33.35
2023-02-11T03:05:53.671Z,34.13
2023-02-11T03:08:30.453Z,42.63
2023-02-11T03:10:58.860Z,35.70
2023-02-11T03:13:30.727Z,39.95
2023-02-11T03:16:00.687Z,42.45
2023-02-11T03:19:54.589Z,38.70
2023-02-11T03:22:27.452Z,33.95
2023-02-11T03:24:56.334Z,35.33
2023-02-11T03:27:43.761Z,35.15
2023-02-11T03:30:38.556Z,36.72
2023-02-11T03:33:20.017Z,37.80
2023-02-11T03:35:55.922Z,36.88
2023-02-11T03:38:31.619Z,37.15
2023-02-11T03:40:59.857Z,33.47
2023-02-11T03:43:31.937Z,36.67
2023-02-11T03:46:00.077Z,36.25
2023-02-11T03:48:40.102Z,40.33
2023-02-11T03:51:09.625Z,35.35
2023-02-11T03:53:38.219Z,32.53
2023-02-11T03:56:09.191Z,34.15
2023-02-11T03:58:35.491Z,33.67
2023-02-11T04:01:01.872Z,35.70
2023-02-11T04:03:28.509Z,34.20
2023-02-11T04:05:54.841Z,36.90
2023-02-11T04:08:21.258Z,34.13
2023-02-11T04:10:47.553Z,33.00
2023-02-11T04:13:13.850Z,36.30
2023-02-11T04:15:40.151Z,33.97
2023-02-11T04:18:06.547Z,36.60
2023-02-11T04:20:32.969Z,45.72
2023-02-11T04:22:59.330Z,42.65
2023-02-11T04:25:25.690Z,41.13
2023-02-11T04:27:52.080Z,38.22
2023-02-11T04:30:18.436Z,41.10
2023-02-11T04:32:44.795Z,33.10
2023-02-11T04:35:11.185Z,36.30
2023-02-11T04:37:37.822Z,31.38
2023-02-11T04:40:04.607Z,30.45
2023-02-11T04:42:30.903Z,33.10
2023-02-11T04:44:57.330Z,30.58
2023-02-11T04:47:23.854Z,30.58
2023-02-11T04:49:50.179Z,27.52
2023-02-11T04:52:16.497Z,34.70
2023-02-11T04:54:42.805Z,33.88
2023-02-11T04:57:09.103Z,30.70
2023-02-11T04:59:35.519Z,30.50
2023-02-11T05:02:01.828Z,33.97
2023-02-11T05:04:28.229Z,28.35
2023-02-11T05:06:55.656Z,31.02
2023-02-11T05:09:23.388Z,31.73
2023-02-11T05:11:49.848Z,29.50
2023-02-11T05:14:16.177Z,33.55
2023-02-11T05:16:42.527Z,26.23
2023-02-11T05:19:08.916Z,30.95
2023-02-11T05:21:35.195Z,29.67
2023-02-11T05:24:01.492Z,27.88
2023-02-11T05:26:28.031Z,28.95
2023-02-11T05:28:54.360Z,28.15
2023-02-11T05:31:20.697Z,30.48
2023-02-11T05:33:47.104Z,26.75
2023-02-11T05:36:13.453Z,30.88
2023-02-11T05:38:40.096Z,30.10
2023-02-11T05:41:06.839Z,35.67
2023-02-11T05:43:33.413Z,40.90
2023-02-11T05:45:59.778Z,43.60
2023-02-11T05:48:26.185Z,34.75
2023-02-11T05:50:52.512Z,31.23
2023-02-11T05:53:18.808Z,28.25
2023-02-11T05:55:45.636Z,27.60
2023-02-11T05:58:11.935Z,33.42
2023-02-11T06:00:38.326Z,31.25
2023-02-11T06:03:05.221Z,30.55
2023-02-11T06:05:32.256Z,30.05
2023-02-11T06:07:58.972Z,29.83
2023-02-11T06:10:25.721Z,30.63
2023-02-11T06:12:52.201Z,28.00
2023-02-11T06:15:18.483Z,24.40
2023-02-11T06:17:44.795Z,27.35
2023-02-11T06:20:11.847Z,25.33
2023-02-11T06:22:38.186Z,27.23
2023-02-11T06:25:04.845Z,26.40
2023-02-11T06:27:31.376Z,23.70
2023-02-11T06:29:57.709Z,30.63
2023-02-11T06:32:42.859Z,22.90
2023-02-11T06:35:12.044Z,21.95
2023-02-11T06:37:39.403Z,24.77
2023-02-11T06:40:06.091Z,28.10
2023-02-11T06:42:32.409Z,27.13
2023-02-11T06:44:58.725Z,27.48
2023-02-11T06:47:25.163Z,27.10
2023-02-11T06:49:51.522Z,23.77
2023-02-11T06:52:17.802Z,22.40
2023-02-11T06:54:44.122Z,24.70
2023-02-11T06:57:10.433Z,23.17
2023-02-11T06:59:36.721Z,20.10
2023-02-11T07:02:03.117Z,25.58
2023-02-11T07:04:29.561Z,27.67
2023-02-11T07:06:55.907Z,30.48
2023-02-11T07:09:22.198Z,26.23
2023-02-11T07:11:48.492Z,35.95
2023-02-11T07:14:14.797Z,38.50
2023-02-11T07:16:41.138Z,31.75
2023-02-11T07:19:07.621Z,28.67
2023-02-11T07:21:34.193Z,29.92
2023-02-11T07:24:00.490Z,25.10
2023-02-11T07:26:26.957Z,26.38
2023-02-11T07:28:53.628Z,25.83
2023-02-11T07:31:27.953Z,25.58
2023-02-11T07:33:56.501Z,26.33
2023-02-11T07:36:23.379Z,24.75
2023-02-11T07:38:50.245Z,26.15
2023-02-11T07:41:19.963Z,24.52
2023-02-11T07:43:46.680Z,21.38
2023-02-11T07:46:17.012Z,19.73
2023-02-11T07:48:43.409Z,20.35
2023-02-11T07:51:14.528Z,17.27
2023-02-11T07:53:40.980Z,19.50
2023-02-11T07:56:08.981Z,24.27
2023-02-11T07:58:35.771Z,22.13
2023-02-11T08:01:07.675Z,20.73
2023-02-11T08:03:35.144Z,20.08
2023-02-11T08:06:09.721Z,17.27
2023-02-11T08:08:36.325Z,15.40
2023-02-11T08:11:10.675Z,20.55
2023-02-11T08:13:37.904Z,17.50
2023-02-11T08:16:05.151Z,18.08
2023-02-11T08:18:33.109Z,18.38
2023-02-11T08:21:07.317Z,16.48
2023-02-11T08:23:36.505Z,16.30
2023-02-11T08:26:04.279Z,17.80
2023-02-11T08:30:57.186Z,17.40
2023-02-11T08:33:23.506Z,18.13
2023-02-11T08:35:49.792Z,15.43
2023-02-11T08:38:16.138Z,16.40
2023-02-11T08:40:42.413Z,14.73
2023-02-11T08:43:08.687Z,17.08
2023-02-11T08:45:35.094Z,18.73
2023-02-11T08:48:01.409Z,16.75
2023-02-11T08:50:27.908Z,17.70
2023-02-11T08:52:54.205Z,17.35
2023-02-11T08:55:20.495Z,15.93
2023-02-11T08:57:47.685Z,16.85
2023-02-11T09:00:14.855Z,17.50
2023-02-11T09:02:41.237Z,17.50
2023-02-11T09:05:07.998Z,18.75
2023-02-11T09:07:34.280Z,20.42
2023-02-11T09:10:00.707Z,16.40
2023-02-11T09:12:27.103Z,17.35
2023-02-11T09:14:53.387Z,14.65
2023-02-11T09:17:19.773Z,18.00
2023-02-11T09:19:46.091Z,16.35
2023-02-11T09:22:12.421Z,17.35
2023-02-11T09:24:38.714Z,19.70
2023-02-11T09:27:05.900Z,16.98
2023-02-11T09:29:32.255Z,16.70
2023-02-11T09:31:58.699Z,17.13
2023-02-11T09:34:25.044Z,15.75
2023-02-11T09:36:51.466Z,20.40
2023-02-11T09:39:19.159Z,15.70
2023-02-11T09:42:10.565Z,14.77
2023-02-11T09:44:38.033Z,16.83
2023-02-11T09:47:07.565Z,17.27
2023-02-11T09:49:40.713Z,15.98
2023-02-11T09:52:48.249Z,15.18
2023-02-11T09:55:22.549Z,18.38
2023-02-11T09:57:49.212Z,15.38
2023-02-11T10:00:31.552Z,18.33
2023-02-11T10:03:21.197Z,16.23
2023-02-11T10:06:05.486Z,15.50
2023-02-11T10:08:49.482Z,16.25
2023-02-11T10:11:32.671Z,16.65
2023-02-11T10:14:21.921Z,16.27
2023-02-11T10:17:02.245Z,16.88
2023-02-11T10:20:00.331Z,18.58
2023-02-11T10:25:16.491Z,17.95
2023-02-11T10:27:43.075Z,16.42
2023-02-11T10:30:21.872Z,18.38
2023-02-11T10:32:57.567Z,16.63
2023-02-11T10:35:24.539Z,14.85
2023-02-11T10:37:50.934Z,17.13
2023-02-11T10:40:20.872Z,18.33
2023-02-11T10:42:55.559Z,20.92
2023-02-11T10:45:31.997Z,19.33
2023-02-11T10:47:58.484Z,18.73
2023-02-11T10:50:28.285Z,19.67
2023-02-11T10:53:12.154Z,20.20
2023-02-11T10:55:38.689Z,14.18
2023-02-11T10:58:05.634Z,15.45
2023-02-11T11:00:42.223Z,16.35
2023-02-11T11:03:19.391Z,17.13
2023-02-11T11:05:49.162Z,16.88
2023-02-11T11:08:16.804Z,21.02
2023-02-11T11:13:30.319Z,15.73
2023-02-11T11:16:33.175Z,18.10
2023-02-11T11:19:08.618Z,18.85
2023-02-11T11:21:43.932Z,17.50
2023-02-11T11:24:39.913Z,18.65
2023-02-11T11:27:06.878Z,19.40
2023-02-11T11:29:45.703Z,17.67
2023-02-11T11:32:20.604Z,20.85
2023-02-11T11:34:55.823Z,17.55
2023-02-11T11:37:26.956Z,19.45
2023-02-11T11:40:07.696Z,19.45
2023-02-11T11:42:37.312Z,18.70
2023-02-11T11:45:24.854Z,18.77
2023-02-11T11:47:55.821Z,20.90
2023-02-11T11:50:36.700Z,19.13
2023-02-11T11:53:30.701Z,22.63
2023-02-11T11:56:13.668Z,23.45
2023-02-11T11:58:40.129Z,24.88
2023-02-11T12:01:45.390Z,21.75
2023-02-11T12:04:33.436Z,22.10
2023-02-11T12:07:36.976Z,21.58
2023-02-11T12:10:24.560Z,23.00
2023-02-11T12:13:02.294Z,24.50
2023-02-11T12:15:42.755Z,21.23
2023-02-11T12:18:24.276Z,24.05
2023-02-11T12:21:00.093Z,23.17
2023-02-11T12:23:58.291Z,21.08
2023-02-11T12:26:36.047Z,23.08
2023-02-11T12:29:29.968Z,20.17
2023-02-11T12:31:59.254Z,23.13
2023-02-11T12:34:41.097Z,18.92
2023-02-11T12:37:29.229Z,18.95
2023-02-11T12:40:09.016Z,21.42
2023-02-11T12:45:10.800Z,21.23
2023-02-11T12:47:40.095Z,23.05
2023-02-11T12:50:09.301Z,19.67
2023-02-11T12:53:00.577Z,17.20
2023-02-11T12:55:31.070Z,21.10
2023-02-11T12:57:58.538Z,18.30
2023-02-11T13:00:53.025Z,19.10
2023-02-11T13:03:49.839Z,21.17
2023-02-11T13:06:22.424Z,22.15
2023-02-11T13:08:53.657Z,19.17
2023-02-11T13:11:26.988Z,21.00
2023-02-11T13:14:01.877Z,20.98
2023-02-11T13:16:37.156Z,19.55
2023-02-11T13:19:17.604Z,20.58
2023-02-11T13:22:25.212Z,22.67
2023-02-11T13:25:02.039Z,18.50
2023-02-11T13:28:14.525Z,21.35
2023-02-11T13:30:41.177Z,18.92
2023-02-11T13:33:20.027Z,18.25
2023-02-11T13:36:06.558Z,20.05
2023-02-11T13:38:33.602Z,20.38
2023-02-11T13:41:26.566Z,19.42
2023-02-11T13:44:11.151Z,19.55
2023-02-11T13:46:54.803Z,16.15
2023-02-11T13:49:25.569Z,21.27
2023-02-11T13:51:53.501Z,21.67
2023-02-11T13:54:27.120Z,18.45
2023-02-11T13:59:38.389Z,20.58
2023-02-11T14:02:16.755Z,22.45
2023-02-11T14:05:19.160Z,19.38
2023-02-11T14:08:11.493Z,18.63
2023-02-11T14:10:43.559Z,19.02
2023-02-11T14:13:25.218Z,20.23
2023-02-11T14:16:10.892Z,19.10
2023-02-11T14:18:49.225Z,21.48
2023-02-11T14:21:27.615Z,20.27
2023-02-11T14:24:13.943Z,23.02
2023-02-11T14:26:52.095Z,19.35
2023-02-11T14:29:18.341Z,18.67
2023-02-11T14:32:06.591Z,20.85
2023-02-11T14:34:56.013Z,21.08
2023-02-11T14:37:50.931Z,21.60
2023-02-11T14:40:26.686Z,21.80
2023-02-11T14:42:55.133Z,22.00
2023-02-11T14:45:26.838Z,20.35
2023-02-11T14:48:16.078Z,22.20
2023-02-11T14:50:52.761Z,16.95
2023-02-11T14:53:25.832Z,21.27
2023-02-11T14:55:54.212Z,22.90
2023-02-11T14:58:23.255Z,20.08
2023-02-11T15:00:57.681Z,20.10
2023-02-11T15:03:29.979Z,22.50
2023-02-11T15:05:59.277Z,22.25
2023-02-11T15:08:26.669Z,20.20
2023-02-11T15:10:55.234Z,21.33
2023-02-11T15:13:24.552Z,17.25
2023-02-11T15:15:55.558Z,18.08
2023-02-11T15:18:25.276Z,23.40
2023-02-11T15:20:52.236Z,22.80
2023-02-11T15:23:25.995Z,18.98
2023-02-11T15:25:52.479Z,17.80
2023-02-11T15:28:28.197Z,20.20
2023-02-11T15:31:00.780Z,22.30
2023-02-11T15:33:27.918Z,19.50
2023-02-11T15:35:54.203Z,20.83
2023-02-11T15:38:20.623Z,20.33
2023-02-11T15:41:02.197Z,22.10
2023-02-11T15:43:44.892Z,27.83
2023-02-11T15:46:15.485Z,22.60
2023-02-11T15:48:53.566Z,23.88
2023-02-11T15:51:33.123Z,22.67
2023-02-11T15:54:02.522Z,22.33
2023-02-11T15:56:34.786Z,19.13
2023-02-11T15:59:14.305Z,24.35
2023-02-11T16:01:41.162Z,23.58
2023-02-11T16:04:14.638Z,24.88
2023-02-11T16:06:42.935Z,22.67
2023-02-11T16:09:09.165Z,21.58
2023-02-11T16:11:52.784Z,25.98
2023-02-11T16:14:27.175Z,24.02
2023-02-11T16:16:57.749Z,23.40
2023-02-11T16:19:25.927Z,23.80
2023-02-11T16:21:54.699Z,24.55
2023-02-11T16:24:25.978Z,23.88
2023-02-11T16:26:55.457Z,20.98
2023-02-11T16:29:27.926Z,26.23
2023-02-11T16:32:06.464Z,24.50
2023-02-11T16:34:32.855Z,19.10
2023-02-11T16:36:59.238Z,23.35
2023-02-11T16:39:25.511Z,22.20
2023-02-11T16:41:52.267Z,26.52
2023-02-11T16:44:18.716Z,24.48
2023-02-11T16:46:45.532Z,23.88
2023-02-11T16:49:20.442Z,23.65
2023-02-11T16:51:49.916Z,24.98
2023-02-11T16:54:17.482Z,22.58
2023-02-11T16:56:44.389Z,23.58
2023-02-11T16:59:11.135Z,23.70
2023-02-11T17:01:42.424Z,27.77
2023-02-11T17:04:27.133Z,27.50
2023-02-11T17:06:53.972Z,28.63
2023-02-11T17:09:24.042Z,24.98
2023-02-11T17:11:51.145Z,27.38
2023-02-11T17:14:18.596Z,27.35
2023-02-11T17:16:46.536Z,27.98
2023-02-11T17:19:14.963Z,26.98
2023-02-11T17:21:45.859Z,23.83
2023-02-11T17:24:12.834Z,29.50
2023-02-11T17:26:39.172Z,26.67
2023-02-11T17:29:07.190Z,28.73
2023-02-11T17:31:33.861Z,27.75
2023-02-11T17:34:00.399Z,25.95
2023-02-11T17:36:26.707Z,26.20
2023-02-11T17:38:55.081Z,24.02
2023-02-11T17:41:21.402Z,29.02
2023-02-11T17:43:47.708Z,23.50
2023-02-11T17:46:14.260Z,27.67
2023-02-11T17:48:40.620Z,27.13
2023-02-11T17:51:21.837Z,27.98
2023-02-11T17:53:48.265Z,27.92
2023-02-11T17:56:14.641Z,25.65
2023-02-11T17:58:40.933Z,26.30
2023-02-11T18:01:07.466Z,25.88
2023-02-11T18:03:33.909Z,27.85
2023-02-11T18:06:01.548Z,32.30
2023-02-11T18:10:54.292Z,26.92
2023-02-11T18:13:20.780Z,27.88
2023-02-11T18:15:47.105Z,25.52
2023-02-11T18:18:13.835Z,24.20
2023-02-11T18:20:40.582Z,26.85
2023-02-11T18:23:06.900Z,27.40
2023-02-11T18:25:33.245Z,28.85
2023-02-11T18:27:59.625Z,27.48
2023-02-11T18:30:26.340Z,23.23
2023-02-11T18:32:56.064Z,24.75
2023-02-11T18:35:23.108Z,26.33
2023-02-11T18:37:51.021Z,27.38
2023-02-11T18:40:17.559Z,24.83
2023-02-11T18:42:45.547Z,24.63
2023-02-11T18:45:13.418Z,29.98
2023-02-11T18:47:39.921Z,28.48
2023-02-11T18:50:08.450Z,24.95
2023-02-11T18:52:35.463Z,30.67
2023-02-11T18:55:01.759Z,30.08
2023-02-11T18:57:28.186Z,25.38
2023-02-11T18:59:54.704Z,27.50
2023-02-11T19:02:21.086Z,29.40
2023-02-11T19:04:47.518Z,25.55
2023-02-11T19:07:13.824Z,28.08
2023-02-11T19:09:40.113Z,26.50
2023-02-11T19:12:06.618Z,26.30
2023-02-11T19:14:33.255Z,27.83
2023-02-11T19:17:02.430Z,27.45
2023-02-11T19:19:31.802Z,29.33
2023-02-11T19:21:59.477Z,28.13
2023-02-11T19:26:57.033Z,31.73
2023-02-11T19:29:23.667Z,32.05
2023-02-11T19:31:50.160Z,32.35
2023-02-11T19:34:18.310Z,28.10
2023-02-11T19:36:44.595Z,28.17
2023-02-11T19:39:11.152Z,29.80
2023-02-11T19:41:37.913Z,32.40
2023-02-11T19:44:06.167Z,31.80
2023-02-11T19:46:36.286Z,31.60
2023-02-11T19:49:04.185Z,32.28
2023-02-11T19:51:31.468Z,38.00
2023-02-11T19:53:58.698Z,32.70
2023-02-11T19:56:25.042Z,35.80
2023-02-11T19:58:51.358Z,33.03
2023-02-11T20:01:20.697Z,48.47
2023-02-11T20:03:53.991Z,32.90
2023-02-11T20:06:24.102Z,31.40
2023-02-11T20:08:58.869Z,33.10
2023-02-11T20:11:26.256Z,32.38
2023-02-11T20:13:52.552Z,33.97
2023-02-11T20:16:21.609Z,33.72
2023-02-11T20:18:49.586Z,29.13
2023-02-11T20:21:21.537Z,29.88
2023-02-11T20:23:48.708Z,29.30
2023-02-11T20:26:23.760Z,30.52
2023-02-11T20:28:52.055Z,28.20
2023-02-11T20:31:19.313Z,31.55
2023-02-11T20:33:46.459Z,29.33
2023-02-11T20:36:16.245Z,31.17
2023-02-11T20:38:43.052Z,28.00
2023-02-11T20:41:26.804Z,26.88
2023-02-11T20:43:55.021Z,30.10
2023-02-11T20:46:24.472Z,28.17
2023-02-11T20:48:52.146Z,29.45
2023-02-11T20:53:48.197Z,28.52
2023-02-11T20:56:16.007Z,23.52
2023-02-11T20:58:42.849Z,27.10
2023-02-11T21:01:18.703Z,30.52
2023-02-11T21:03:59.472Z,26.70
2023-02-11T21:06:30.361Z,28.27
2023-02-11T21:08:56.680Z,30.40
2023-02-11T21:11:23.556Z,28.00
2023-02-11T21:13:50.315Z,31.17
2023-02-11T21:16:20.086Z,35.83
2023-02-11T21:18:47.507Z,29.15
2023-02-11T21:21:13.872Z,31.08
2023-02-11T21:23:40.282Z,27.38
2023-02-11T21:26:07.609Z,30.90
2023-02-11T21:28:34.567Z,31.45
2023-02-11T21:31:01.723Z,30.15
2023-02-11T21:33:29.160Z,30.48
2023-02-11T21:35:57.266Z,31.48
2023-02-11T21:38:24.995Z,35.25
2023-02-11T21:43:18.317Z,28.65
2023-02-11T21:45:49.940Z,28.00
2023-02-11T21:48:17.233Z,29.40
2023-02-11T21:50:46.893Z,33.10
2023-02-11T21:53:21.227Z,34.28
2023-02-11T21:55:47.528Z,29.58
2023-02-11T21:58:13.835Z,30.52
2023-02-11T22:00:40.326Z,36.15
2023-02-11T22:03:06.692Z,33.47
2023-02-11T22:05:32.999Z,29.13
2023-02-11T22:07:59.394Z,31.88
2023-02-11T22:10:25.698Z,32.40
2023-02-11T22:12:52.061Z,32.33
2023-02-11T22:15:18.441Z,29.33
2023-02-11T22:17:44.723Z,31.15
2023-02-11T22:20:11.790Z,35.35
2023-02-11T22:22:38.098Z,34.45
2023-02-11T22:25:04.541Z,33.88
2023-02-11T22:27:30.968Z,31.67
2023-02-11T22:29:57.259Z,29.55
2023-02-11T22:32:23.544Z,25.67
2023-02-11T22:34:52.174Z,31.80
2023-02-11T22:37:19.582Z,30.35
2023-02-11T22:39:45.945Z,32.58
2023-02-11T22:42:12.325Z,32.95
2023-02-11T22:44:38.631Z,33.80
2023-02-11T22:47:05.009Z,30.65
2023-02-11T22:49:31.348Z,31.25
2023-02-11T22:51:57.765Z,26.90
2023-02-11T22:54:24.217Z,29.20
2023-02-11T22:56:51.608Z,28.25
2023-02-11T22:59:18.247Z,32.58
2023-02-11T23:01:45.404Z,31.83
2023-02-11T23:04:14.188Z,33.10
2023-02-11T23:06:40.675Z,36.72
2023-02-11T23:09:09.772Z,32.55
2023-02-11T23:11:36.317Z,34.90
2023-02-11T23:14:03.022Z,33.90
2023-02-11T23:16:32.981Z,31.90
2023-02-11T23:19:00.964Z,31.83
2023-02-11T23:21:31.100Z,31.27
2023-02-11T23:24:00.075Z,30.38
2023-02-11T23:26:27.663Z,31.08
2023-02-11T23:28:54.187Z,30.92
2023-02-11T23:31:23.939Z,30.30
2023-02-11T23:33:51.222Z,31.65
2023-02-11T23:36:18.702Z,31.33
2023-02-11T23:38:45.439Z,30.10
2023-02-11T23:41:11.986Z,30.92
2023-02-11T23:43:38.379Z,33.50
2023-02-11T23:46:05.319Z,32.03
2023-02-11T23:48:32.152Z,31.13
2023-02-11T23:50:58.480Z,30.63
2023-02-11T23:53:24.772Z,35.60
2023-02-11T23:55:51.083Z,32.13
2023-02-11T23:58:17.391Z,31.60
